sensor_id;sensor_type;location;lat;lon;timestamp;pressure;altitude;pressure_sealevel;temperature;humidity
55187;BME280;55457;52.002;5.464;2023-07-20T00:01:21;101267.00;;;23.87;53.84
55187;BME280;55457;52.002;5.464;2023-07-20T00:03:46;101265.91;;;23.88;54.06
55187;BME280;55457;52.002;5.464;2023-07-20T00:06:19;101265.09;;;23.87;54.33
55187;BME280;55457;52.002;5.464;2023-07-20T00:08:45;101260.47;;;23.88;53.93
55187;BME280;55457;52.002;5.464;2023-07-20T00:11:10;101265.91;;;23.88;53.88
55187;BME280;55457;52.002;5.464;2023-07-20T00:13:35;101258.00;;;23.86;53.87
55187;BME280;55457;52.002;5.464;2023-07-20T00:16:01;101267.00;;;23.87;53.84
55187;BME280;55457;52.002;5.464;2023-07-20T00:18:26;101263.19;;;23.88;53.85
55187;BME280;55457;52.002;5.464;2023-07-20T00:20:51;101266.41;;;23.85;53.91
55187;BME280;55457;52.002;5.464;2023-07-20T00:23:17;101265.34;;;23.86;53.98
55187;BME280;55457;52.002;5.464;2023-07-20T00:25:42;101264.50;;;23.85;54.11
55187;BME280;55457;52.002;5.464;2023-07-20T00:28:08;101269.13;;;23.85;53.98
55187;BME280;55457;52.002;5.464;2023-07-20T00:30:34;101273.53;;;23.86;54.05
55187;BME280;55457;52.002;5.464;2023-07-20T00:32:59;101269.41;;;23.83;54.20
55187;BME280;55457;52.002;5.464;2023-07-20T00:35:25;101267.22;;;23.85;54.19
55187;BME280;55457;52.002;5.464;2023-07-20T00:37:50;101263.94;;;23.83;54.30
55187;BME280;55457;52.002;5.464;2023-07-20T00:40:15;101260.16;;;23.84;54.32
55187;BME280;55457;52.002;5.464;2023-07-20T00:42:43;101267.50;;;23.84;54.27
55187;BME280;55457;52.002;5.464;2023-07-20T00:45:08;101265.59;;;23.84;54.26
55187;BME280;55457;52.002;5.464;2023-07-20T00:47:34;101257.69;;;23.83;54.22
55187;BME280;55457;52.002;5.464;2023-07-20T00:49:59;101265.84;;;23.83;54.09
55187;BME280;55457;52.002;5.464;2023-07-20T00:52:25;101270.22;;;23.84;54.07
55187;BME280;55457;52.002;5.464;2023-07-20T00:54:52;101270.22;;;23.84;54.35
55187;BME280;55457;52.002;5.464;2023-07-20T00:57:21;101274.03;;;23.83;54.19
55187;BME280;55457;52.002;5.464;2023-07-20T00:59:48;101272.94;;;23.84;54.11
55187;BME280;55457;52.002;5.464;2023-07-20T01:02:15;101271.31;;;23.83;54.40
55187;BME280;55457;52.002;5.464;2023-07-20T01:04:40;101265.31;;;23.81;54.34
55187;BME280;55457;52.002;5.464;2023-07-20T01:07:13;101274.84;;;23.83;54.41
55187;BME280;55457;52.002;5.464;2023-07-20T01:09:45;101272.13;;;23.83;53.95
55187;BME280;55457;52.002;5.464;2023-07-20T01:12:18;101269.41;;;23.83;54.10
55187;BME280;55457;52.002;5.464;2023-07-20T01:14:46;101271.31;;;23.83;54.22
55187;BME280;55457;52.002;5.464;2023-07-20T01:17:11;101270.22;;;23.84;54.12
55187;BME280;55457;52.002;5.464;2023-07-20T01:19:39;101268.56;;;23.83;53.90
55187;BME280;55457;52.002;5.464;2023-07-20T01:24:57;101278.38;;;23.84;53.88
55187;BME280;55457;52.002;5.464;2023-07-20T01:32:38;101277.81;;;23.82;54.02
55187;BME280;55457;52.002;5.464;2023-07-20T01:35:05;101283.81;;;23.84;54.08
55187;BME280;55457;52.002;5.464;2023-07-20T01:37:32;101280.28;;;23.83;53.95
55187;BME280;55457;52.002;5.464;2023-07-20T01:39:59;101268.56;;;23.83;54.15
55187;BME280;55457;52.002;5.464;2023-07-20T01:42:26;101272.94;;;23.84;54.21
55187;BME280;55457;52.002;5.464;2023-07-20T01:44:51;101274.03;;;23.83;54.04
55187;BME280;55457;52.002;5.464;2023-07-20T01:47:20;101280.53;;;23.82;53.97
55187;BME280;55457;52.002;5.464;2023-07-20T01:49:45;101287.06;;;23.81;54.34
55187;BME280;55457;52.002;5.464;2023-07-20T01:52:10;101284.91;;;23.83;54.19
55187;BME280;55457;52.002;5.464;2023-07-20T01:54:36;101286.00;;;23.82;54.18
55187;BME280;55457;52.002;5.464;2023-07-20T01:57:02;101287.91;;;23.81;54.57
55187;BME280;55457;52.002;5.464;2023-07-20T01:59:28;101276.19;;;23.81;54.22
55187;BME280;55457;52.002;5.464;2023-07-20T02:01:53;101284.34;;;23.81;54.14
55187;BME280;55457;52.002;5.464;2023-07-20T02:04:18;101284.09;;;23.82;54.39
55187;BME280;55457;52.002;5.464;2023-07-20T02:06:44;101281.63;;;23.81;54.10
55187;BME280;55457;52.002;5.464;2023-07-20T02:09:09;101281.63;;;23.81;54.11
55187;BME280;55457;52.002;5.464;2023-07-20T02:11:34;101278.91;;;23.81;54.04
55187;BME280;55457;52.002;5.464;2023-07-20T02:14:00;101279.97;;;23.80;54.04
55187;BME280;55457;52.002;5.464;2023-07-20T02:16:25;101284.34;;;23.81;54.37
55187;BME280;55457;52.002;5.464;2023-07-20T02:18:51;101288.72;;;23.82;54.14
55187;BME280;55457;52.002;5.464;2023-07-20T02:21:17;101287.06;;;23.81;54.03
55187;BME280;55457;52.002;5.464;2023-07-20T02:23:42;101285.41;;;23.80;54.14
55187;BME280;55457;52.002;5.464;2023-07-20T02:26:08;101290.84;;;23.80;54.00
55187;BME280;55457;52.002;5.464;2023-07-20T02:28:33;101283.78;;;23.79;53.97
55187;BME280;55457;52.002;5.464;2023-07-20T02:30:59;101286.22;;;23.80;54.03
55187;BME280;55457;52.002;5.464;2023-07-20T02:33:25;101283.78;;;23.79;54.09
55187;BME280;55457;52.002;5.464;2023-07-20T02:35:51;101284.84;;;23.78;53.79
55187;BME280;55457;52.002;5.464;2023-07-20T02:38:17;101282.94;;;23.78;53.93
55187;BME280;55457;52.002;5.464;2023-07-20T02:40:42;101286.50;;;23.79;53.78
55187;BME280;55457;52.002;5.464;2023-07-20T02:43:08;101291.94;;;23.79;53.88
55187;BME280;55457;52.002;5.464;2023-07-20T02:45:35;101293.84;;;23.78;54.03
55187;BME280;55457;52.002;5.464;2023-07-20T02:48:00;101297.38;;;23.79;53.78
55187;BME280;55457;52.002;5.464;2023-07-20T02:50:26;101291.38;;;23.77;54.08
55187;BME280;55457;52.002;5.464;2023-07-20T02:52:51;101303.09;;;23.77;53.96
55187;BME280;55457;52.002;5.464;2023-07-20T02:55:17;101292.19;;;23.77;53.92
55187;BME280;55457;52.002;5.464;2023-07-20T02:57:42;101303.91;;;23.78;53.96
55187;BME280;55457;52.002;5.464;2023-07-20T03:00:08;101302.25;;;23.77;53.88
55187;BME280;55457;52.002;5.464;2023-07-20T03:02:33;101306.06;;;23.76;53.86
55187;BME280;55457;52.002;5.464;2023-07-20T03:04:59;101301.69;;;23.75;53.78
55187;BME280;55457;52.002;5.464;2023-07-20T03:07:27;101301.44;;;23.76;53.73
55187;BME280;55457;52.002;5.464;2023-07-20T03:09:53;101312.34;;;23.76;53.59
55187;BME280;55457;52.002;5.464;2023-07-20T03:12:18;101303.34;;;23.76;53.95
55187;BME280;55457;52.002;5.464;2023-07-20T03:14:43;101318.59;;;23.77;53.80
55187;BME280;55457;52.002;5.464;2023-07-20T03:17:09;101315.28;;;23.75;53.85
55187;BME280;55457;52.002;5.464;2023-07-20T03:19:34;101322.41;;;23.76;53.77
55187;BME280;55457;52.002;5.464;2023-07-20T03:21:59;101328.66;;;23.76;53.86
55187;BME280;55457;52.002;5.464;2023-07-20T03:24:25;101333.28;;;23.76;53.88
55187;BME280;55457;52.002;5.464;2023-07-20T03:26:50;101326.16;;;23.75;53.86
55187;BME280;55457;52.002;5.464;2023-07-20T03:29:16;101320.72;;;23.75;53.93
55187;BME280;55457;52.002;5.464;2023-07-20T03:31:41;101321.81;;;23.74;53.85
55187;BME280;55457;52.002;5.464;2023-07-20T03:34:06;101326.16;;;23.75;53.77
55187;BME280;55457;52.002;5.464;2023-07-20T03:36:33;101326.16;;;23.75;53.91
55187;BME280;55457;52.002;5.464;2023-07-20T03:38:59;101324.53;;;23.74;53.76
55187;BME280;55457;52.002;5.464;2023-07-20T03:41:24;101329.16;;;23.73;53.72
55187;BME280;55457;52.002;5.464;2023-07-20T03:43:49;101330.78;;;23.74;53.82
55187;BME280;55457;52.002;5.464;2023-07-20T03:46:15;101324.53;;;23.74;53.73
55187;BME280;55457;52.002;5.464;2023-07-20T03:48:41;101328.34;;;23.73;53.89
55187;BME280;55457;52.002;5.464;2023-07-20T03:51:06;101321.25;;;23.72;53.89
55187;BME280;55457;52.002;5.464;2023-07-20T03:53:31;101334.03;;;23.71;53.75
55187;BME280;55457;52.002;5.464;2023-07-20T03:55:57;101328.34;;;23.73;53.63
55187;BME280;55457;52.002;5.464;2023-07-20T03:58:23;101332.13;;;23.72;53.72
55187;BME280;55457;52.002;5.464;2023-07-20T04:00:50;101332.13;;;23.72;53.92
55187;BME280;55457;52.002;5.464;2023-07-20T04:03:16;101337.59;;;23.72;53.60
55187;BME280;55457;52.002;5.464;2023-07-20T04:05:43;101338.41;;;23.72;53.53
55187;BME280;55457;52.002;5.464;2023-07-20T04:08:09;101334.03;;;23.71;53.50
55187;BME280;55457;52.002;5.464;2023-07-20T04:10:36;101338.41;;;23.72;53.67
55187;BME280;55457;52.002;5.464;2023-07-20T04:13:02;101337.59;;;23.72;53.30
55187;BME280;55457;52.002;5.464;2023-07-20T04:15:27;101339.22;;;23.73;53.79
55187;BME280;55457;52.002;5.464;2023-07-20T04:17:53;101344.66;;;23.73;53.73
55187;BME280;55457;52.002;5.464;2023-07-20T04:20:18;101345.75;;;23.72;53.76
55187;BME280;55457;52.002;5.464;2023-07-20T04:22:44;101345.47;;;23.73;53.53
55187;BME280;55457;52.002;5.464;2023-07-20T04:25:09;101348.47;;;23.72;53.54
55187;BME280;55457;52.002;5.464;2023-07-20T04:27:36;101348.47;;;23.72;53.52
55187;BME280;55457;52.002;5.464;2023-07-20T04:30:01;101343.53;;;23.68;53.65
55187;BME280;55457;52.002;5.464;2023-07-20T04:32:27;101352.50;;;23.69;53.56
55187;BME280;55457;52.002;5.464;2023-07-20T04:34:53;101353.31;;;23.69;53.45
55187;BME280;55457;52.002;5.464;2023-07-20T04:37:18;101348.47;;;23.72;53.63
55187;BME280;55457;52.002;5.464;2023-07-20T04:39:43;101353.91;;;23.72;53.30
55187;BME280;55457;52.002;5.464;2023-07-20T04:42:09;101352.28;;;23.71;53.53
55187;BME280;55457;52.002;5.464;2023-07-20T04:44:34;101343.53;;;23.68;53.57
55187;BME280;55457;52.002;5.464;2023-07-20T04:46:59;101353.91;;;23.72;53.32
55187;BME280;55457;52.002;5.464;2023-07-20T04:49:25;101350.38;;;23.71;53.44
55187;BME280;55457;52.002;5.464;2023-07-20T04:51:51;101357.44;;;23.72;53.57
55187;BME280;55457;52.002;5.464;2023-07-20T04:54:16;101353.09;;;23.71;53.46
55187;BME280;55457;52.002;5.464;2023-07-20T04:56:43;101356.63;;;23.72;53.46
55187;BME280;55457;52.002;5.464;2023-07-20T04:59:09;101364.78;;;23.72;53.47
55187;BME280;55457;52.002;5.464;2023-07-20T05:01:34;101357.44;;;23.72;53.40
55187;BME280;55457;52.002;5.464;2023-07-20T05:03:59;101362.06;;;23.72;53.34
55187;BME280;55457;52.002;5.464;2023-07-20T05:06:25;101359.34;;;23.72;53.61
55187;BME280;55457;52.002;5.464;2023-07-20T05:08:51;101366.44;;;23.73;53.50
55187;BME280;55457;52.002;5.464;2023-07-20T05:11:16;101363.16;;;23.71;53.67
55187;BME280;55457;52.002;5.464;2023-07-20T05:13:41;101366.44;;;23.73;53.53
55187;BME280;55457;52.002;5.464;2023-07-20T05:16:07;101365.63;;;23.72;53.38
55187;BME280;55457;52.002;5.464;2023-07-20T05:18:32;101364.78;;;23.72;53.55
55187;BME280;55457;52.002;5.464;2023-07-20T05:20:58;101363.97;;;23.71;53.07
55187;BME280;55457;52.002;5.464;2023-07-20T05:23:24;101367.50;;;23.72;53.45
55187;BME280;55457;52.002;5.464;2023-07-20T05:25:56;101374.59;;;23.73;53.28
55187;BME280;55457;52.002;5.464;2023-07-20T05:28:22;101368.34;;;23.72;53.42
55187;BME280;55457;52.002;5.464;2023-07-20T05:30:47;101370.22;;;23.72;53.36
55187;BME280;55457;52.002;5.464;2023-07-20T05:33:12;101362.06;;;23.72;53.35
55187;BME280;55457;52.002;5.464;2023-07-20T05:35:38;101364.78;;;23.72;53.46
55187;BME280;55457;52.002;5.464;2023-07-20T05:38:03;101367.25;;;23.73;53.68
55187;BME280;55457;52.002;5.464;2023-07-20T05:40:30;101369.41;;;23.71;53.48
55187;BME280;55457;52.002;5.464;2023-07-20T05:42:57;101363.97;;;23.71;53.37
55187;BME280;55457;52.002;5.464;2023-07-20T05:45:22;101363.16;;;23.71;53.33
55187;BME280;55457;52.002;5.464;2023-07-20T05:47:48;101364.78;;;23.72;53.30
55187;BME280;55457;52.002;5.464;2023-07-20T05:50:14;101358.28;;;23.73;53.89
55187;BME280;55457;52.002;5.464;2023-07-20T05:52:40;101359.34;;;23.72;54.18
55187;BME280;55457;52.002;5.464;2023-07-20T05:55:06;101357.44;;;23.72;54.62
55187;BME280;55457;52.002;5.464;2023-07-20T05:57:31;101364.78;;;23.72;54.72
55187;BME280;55457;52.002;5.464;2023-07-20T05:59:57;101362.06;;;23.72;55.03
55187;BME280;55457;52.002;5.464;2023-07-20T06:02:22;101366.69;;;23.71;54.85
55187;BME280;55457;52.002;5.464;2023-07-20T06:04:48;101363.16;;;23.71;54.52
55187;BME280;55457;52.002;5.464;2023-07-20T06:07:13;101366.94;;;23.69;54.57
55187;BME280;55457;52.002;5.464;2023-07-20T06:09:39;101368.81;;;23.69;54.38
55187;BME280;55457;52.002;5.464;2023-07-20T06:12:05;101372.38;;;23.69;54.22
55187;BME280;55457;52.002;5.464;2023-07-20T06:14:30;101372.38;;;23.69;53.90
55187;BME280;55457;52.002;5.464;2023-07-20T06:16:56;101369.66;;;23.69;53.99
55187;BME280;55457;52.002;5.464;2023-07-20T06:19:21;101365.28;;;23.68;54.04
55187;BME280;55457;52.002;5.464;2023-07-20T06:21:47;101375.09;;;23.69;53.92
55187;BME280;55457;52.002;5.464;2023-07-20T06:24:15;101379.47;;;23.71;53.77
55187;BME280;55457;52.002;5.464;2023-07-20T06:26:40;101377.81;;;23.69;53.84
55187;BME280;55457;52.002;5.464;2023-07-20T06:29:06;101385.97;;;23.69;53.61
55187;BME280;55457;52.002;5.464;2023-07-20T06:31:32;101383.25;;;23.69;53.51
55187;BME280;55457;52.002;5.464;2023-07-20T06:33:58;101384.09;;;23.70;53.76
55187;BME280;55457;52.002;5.464;2023-07-20T06:36:24;101392.28;;;23.70;53.50
55187;BME280;55457;52.002;5.464;2023-07-20T06:38:51;101392.28;;;23.70;53.57
55187;BME280;55457;52.002;5.464;2023-07-20T06:41:16;101397.94;;;23.68;53.50
55187;BME280;55457;52.002;5.464;2023-07-20T06:43:42;101388.69;;;23.69;53.30
55187;BME280;55457;52.002;5.464;2023-07-20T06:46:07;101391.19;;;23.71;53.47
55187;BME280;55457;52.002;5.464;2023-07-20T06:48:32;101389.53;;;23.70;53.40
55187;BME280;55457;52.002;5.464;2023-07-20T06:50:58;101392.28;;;23.70;53.31
55187;BME280;55457;52.002;5.464;2023-07-20T06:53:24;101392.00;;;23.72;53.35
55187;BME280;55457;52.002;5.464;2023-07-20T06:55:49;101399.09;;;23.73;53.41
55187;BME280;55457;52.002;5.464;2023-07-20T06:58:15;101404.53;;;23.73;53.33
55187;BME280;55457;52.002;5.464;2023-07-20T07:00:40;101401.25;;;23.71;53.10
55187;BME280;55457;52.002;5.464;2023-07-20T07:03:06;101397.44;;;23.72;53.11
55187;BME280;55457;52.002;5.464;2023-07-20T07:05:35;101395.53;;;23.72;53.01
55187;BME280;55457;52.002;5.464;2023-07-20T07:08:02;101400.72;;;23.74;53.17
55187;BME280;55457;52.002;5.464;2023-07-20T07:10:27;101395.28;;;23.74;53.14
55187;BME280;55457;52.002;5.464;2023-07-20T07:12:52;101396.09;;;23.74;53.16
55187;BME280;55457;52.002;5.464;2023-07-20T07:15:18;101402.13;;;23.76;53.00
55187;BME280;55457;52.002;5.464;2023-07-20T07:17:43;101400.25;;;23.77;53.05
55187;BME280;55457;52.002;5.464;2023-07-20T07:20:09;101398.06;;;23.79;52.98
55187;BME280;55457;52.002;5.464;2023-07-20T07:22:34;101398.06;;;23.79;53.22
55187;BME280;55457;52.002;5.464;2023-07-20T07:25:00;101400.78;;;23.79;53.12
55187;BME280;55457;52.002;5.464;2023-07-20T07:27:25;101391.81;;;23.78;53.05
55187;BME280;55457;52.002;5.464;2023-07-20T07:29:51;101400.53;;;23.80;53.23
55187;BME280;55457;52.002;5.464;2023-07-20T07:32:16;101404.94;;;23.81;53.08
55187;BME280;55457;52.002;5.464;2023-07-20T07:34:43;101403.59;;;23.84;52.88
55187;BME280;55457;52.002;5.464;2023-07-20T07:37:08;101404.16;;;23.86;52.84
55187;BME280;55457;52.002;5.464;2023-07-20T07:39:34;101409.03;;;23.84;52.91
55187;BME280;55457;52.002;5.464;2023-07-20T07:41:59;101413.97;;;23.87;52.86
55187;BME280;55457;52.002;5.464;2023-07-20T07:44:26;101407.44;;;23.88;52.61
55187;BME280;55457;52.002;5.464;2023-07-20T07:46:51;101412.06;;;23.87;52.56
55187;BME280;55457;52.002;5.464;2023-07-20T07:49:17;101414.53;;;23.89;52.28
55187;BME280;55457;52.002;5.464;2023-07-20T07:52:17;101410.72;;;23.90;52.21
55187;BME280;55457;52.002;5.464;2023-07-20T07:54:43;101408.81;;;23.90;52.36
55187;BME280;55457;52.002;5.464;2023-07-20T07:57:08;101408.88;;;23.95;52.05
55187;BME280;55457;52.002;5.464;2023-07-20T07:59:33;101404.25;;;23.96;52.37
55187;BME280;55457;52.002;5.464;2023-07-20T08:02:04;101405.94;;;23.97;52.34
55187;BME280;55457;52.002;5.464;2023-07-20T08:04:29;101403.78;;;23.99;52.28
55187;BME280;55457;52.002;5.464;2023-07-20T08:06:55;101401.88;;;24.00;52.09
55187;BME280;55457;52.002;5.464;2023-07-20T08:09:20;101395.28;;;23.95;51.10
55187;BME280;55457;52.002;5.464;2023-07-20T08:11:45;101403.44;;;23.95;51.42
55187;BME280;55457;52.002;5.464;2023-07-20T08:14:11;101398.81;;;23.96;51.56
55187;BME280;55457;52.002;5.464;2023-07-20T08:16:36;101400.50;;;23.97;51.78
55187;BME280;55457;52.002;5.464;2023-07-20T08:19:02;101405.41;;;24.00;51.63
55187;BME280;55457;52.002;5.464;2023-07-20T08:21:27;101407.03;;;24.01;51.33
55187;BME280;55457;52.002;5.464;2023-07-20T08:23:53;101407.03;;;24.01;50.77
55187;BME280;55457;52.002;5.464;2023-07-20T08:26:18;101413.34;;;24.02;50.77
55187;BME280;55457;52.002;5.464;2023-07-20T08:28:44;101408.72;;;24.02;50.65
55187;BME280;55457;52.002;5.464;2023-07-20T08:31:10;101414.97;;;24.03;50.58
55187;BME280;55457;52.002;5.464;2023-07-20T08:33:35;101416.63;;;24.04;50.15
55187;BME280;55457;52.002;5.464;2023-07-20T08:36:01;101417.44;;;24.04;49.93
55187;BME280;55457;52.002;5.464;2023-07-20T08:38:27;101417.44;;;24.04;49.78
55187;BME280;55457;52.002;5.464;2023-07-20T08:40:53;101422.22;;;23.92;45.80
55187;BME280;55457;52.002;5.464;2023-07-20T08:43:20;101420.72;;;23.84;47.50
55187;BME280;55457;52.002;5.464;2023-07-20T08:45:51;101418.59;;;23.86;48.43
55187;BME280;55457;52.002;5.464;2023-07-20T08:48:18;101420.78;;;23.89;48.55
55187;BME280;55457;52.002;5.464;2023-07-20T08:50:45;101419.84;;;23.79;45.81
55187;BME280;55457;52.002;5.464;2023-07-20T08:53:12;101418.22;;;23.78;47.35
55187;BME280;55457;52.002;5.464;2023-07-20T08:55:39;101420.78;;;23.67;45.96
55187;BME280;55457;52.002;5.464;2023-07-20T08:58:08;101418.41;;;23.71;46.84
55187;BME280;55457;52.002;5.464;2023-07-20T09:00:36;101416.56;;;23.77;47.41
55187;BME280;55457;52.002;5.464;2023-07-20T09:03:02;101403.50;;;23.79;46.24
55187;BME280;55457;52.002;5.464;2023-07-20T09:05:28;101404.84;;;23.76;43.10
55187;BME280;55457;52.002;5.464;2023-07-20T09:07:54;101415.59;;;23.66;43.32
55187;BME280;55457;52.002;5.464;2023-07-20T09:10:23;101405.44;;;23.61;43.22
55187;BME280;55457;52.002;5.464;2023-07-20T09:12:49;101407.94;;;23.63;44.59
55187;BME280;55457;52.002;5.464;2023-07-20T09:15:15;101412.63;;;23.67;45.31
55187;BME280;55457;52.002;5.464;2023-07-20T09:17:51;101420.84;;;23.73;43.55
55187;BME280;55457;52.002;5.464;2023-07-20T09:20:19;101419.72;;;23.68;41.80
55187;BME280;55457;52.002;5.464;2023-07-20T09:22:45;101412.28;;;23.64;43.19
55187;BME280;55457;52.002;5.464;2023-07-20T09:25:14;101422.69;;;23.67;43.50
55187;BME280;55457;52.002;5.464;2023-07-20T09:27:45;101419.22;;;23.72;43.91
55187;BME280;55457;52.002;5.464;2023-07-20T09:30:14;101419.03;;;23.78;44.45
55187;BME280;55457;52.002;5.464;2023-07-20T09:32:44;101418.81;;;23.85;44.40
55187;BME280;55457;52.002;5.464;2023-07-20T09:35:17;101417.84;;;23.91;44.33
55187;BME280;55457;52.002;5.464;2023-07-20T09:40:19;101409.78;;;24.01;44.07
55187;BME280;55457;52.002;5.464;2023-07-20T09:42:45;101408.19;;;24.05;44.13
55187;BME280;55457;52.002;5.464;2023-07-20T09:45:11;101413.97;;;24.09;44.00
55187;BME280;55457;52.002;5.464;2023-07-20T09:47:37;101409.88;;;24.11;42.75
55187;BME280;55457;52.002;5.464;2023-07-20T09:50:04;101409.59;;;24.08;42.76
55187;BME280;55457;52.002;5.464;2023-07-20T09:52:31;101406.22;;;24.01;42.69
55187;BME280;55457;52.002;5.464;2023-07-20T09:54:57;101401.59;;;24.01;43.35
55187;BME280;55457;52.002;5.464;2023-07-20T09:57:23;101397.25;;;24.00;43.12
55187;BME280;55457;52.002;5.464;2023-07-20T09:59:48;101406.00;;;24.02;43.59
55187;BME280;55457;52.002;5.464;2023-07-20T10:02:21;101406.06;;;24.07;43.97
55187;BME280;55457;52.002;5.464;2023-07-20T10:04:52;101403.63;;;24.11;44.59
55187;BME280;55457;52.002;5.464;2023-07-20T10:07:19;101403.69;;;24.16;43.53
55187;BME280;55457;52.002;5.464;2023-07-20T10:09:48;101405.63;;;24.20;43.70
55187;BME280;55457;52.002;5.464;2023-07-20T10:12:15;101404.56;;;24.21;43.84
55187;BME280;55457;52.002;5.464;2023-07-20T10:14:44;101398.22;;;24.16;43.70
55187;BME280;55457;52.002;5.464;2023-07-20T10:17:17;101395.78;;;24.14;43.29
55187;BME280;55457;52.002;5.464;2023-07-20T10:19:47;101392.56;;;24.17;43.26
55187;BME280;55457;52.002;5.464;2023-07-20T10:22:19;101392.59;;;24.23;43.26
55187;BME280;55457;52.002;5.464;2023-07-20T10:24:49;101391.47;;;24.18;42.24
55187;BME280;55457;52.002;5.464;2023-07-20T10:27:15;101388.16;;;24.16;42.58
55187;BME280;55457;52.002;5.464;2023-07-20T10:29:41;101379.22;;;24.21;43.37
55187;BME280;55457;52.002;5.464;2023-07-20T10:32:08;101385.00;;;24.25;43.12
55187;BME280;55457;52.002;5.464;2023-07-20T10:34:34;101382.31;;;24.30;43.18
55187;BME280;55457;52.002;5.464;2023-07-20T10:37:00;101392.13;;;24.31;42.62
55187;BME280;55457;52.002;5.464;2023-07-20T10:39:31;101381.25;;;24.31;43.07
55187;BME280;55457;52.002;5.464;2023-07-20T10:42:06;101387.81;;;24.35;43.28
55187;BME280;55457;52.002;5.464;2023-07-20T10:44:33;101372.06;;;24.37;43.45
55187;BME280;55457;52.002;5.464;2023-07-20T10:47:03;101377.50;;;24.37;43.63
55187;BME280;55457;52.002;5.464;2023-07-20T10:49:30;101382.97;;;24.37;43.82
55187;BME280;55457;52.002;5.464;2023-07-20T10:51:59;101384.59;;;24.38;43.86
55187;BME280;55457;52.002;5.464;2023-07-20T10:56:50;101374.38;;;24.50;42.94
55187;BME280;55457;52.002;5.464;2023-07-20T11:01:45;101371.94;;;24.49;43.21
55187;BME280;55457;52.002;5.464;2023-07-20T11:04:12;101375.72;;;24.47;43.52
55187;BME280;55457;52.002;5.464;2023-07-20T11:06:38;101370.84;;;24.50;43.62
55187;BME280;55457;52.002;5.464;2023-07-20T11:09:09;101378.25;;;24.54;43.18
55187;BME280;55457;52.002;5.464;2023-07-20T11:11:38;101368.97;;;24.55;43.24
55187;BME280;55457;52.002;5.464;2023-07-20T11:14:06;101367.91;;;24.56;43.69
55187;BME280;55457;52.002;5.464;2023-07-20T11:19:00;101373.84;;;24.53;43.46
55187;BME280;55457;52.002;5.464;2023-07-20T11:21:26;101370.03;;;24.49;43.21
55187;BME280;55457;52.002;5.464;2023-07-20T11:23:52;101365.38;;;24.50;43.42
55187;BME280;55457;52.002;5.464;2023-07-20T11:26:19;101364.56;;;24.49;43.59
55187;BME280;55457;52.002;5.464;2023-07-20T11:28:51;101360.19;;;24.48;43.68
55187;BME280;55457;52.002;5.464;2023-07-20T11:31:20;101365.13;;;24.51;43.68
55187;BME280;55457;52.002;5.464;2023-07-20T11:33:46;101362.72;;;24.55;43.47
55187;BME280;55457;52.002;5.464;2023-07-20T11:36:12;101352.09;;;24.58;43.64
55187;BME280;55457;52.002;5.464;2023-07-20T11:38:41;101352.91;;;24.59;42.98
55187;BME280;55457;52.002;5.464;2023-07-20T11:41:07;101351.28;;;24.58;42.75
55187;BME280;55457;52.002;5.464;2023-07-20T11:43:32;101349.41;;;24.63;43.21
55187;BME280;55457;52.002;5.464;2023-07-20T11:45:58;101342.94;;;24.69;43.54
55187;BME280;55457;52.002;5.464;2023-07-20T11:48:24;101343.53;;;24.77;43.44
55187;BME280;55457;52.002;5.464;2023-07-20T11:50:49;101340.59;;;24.83;43.63
55187;BME280;55457;52.002;5.464;2023-07-20T11:53:15;101337.63;;;24.90;43.43
55187;BME280;55457;52.002;5.464;2023-07-20T11:55:41;101338.47;;;24.90;42.41
55187;BME280;55457;52.002;5.464;2023-07-20T11:58:08;101337.34;;;24.86;42.02
55187;BME280;55457;52.002;5.464;2023-07-20T12:00:36;101328.38;;;24.91;42.51
55187;BME280;55457;52.002;5.464;2023-07-20T12:03:05;101336.00;;;24.94;41.91
55187;BME280;55457;52.002;5.464;2023-07-20T12:05:32;101327.84;;;24.94;41.62
55187;BME280;55457;52.002;5.464;2023-07-20T12:07:57;101321.06;;;24.96;41.99
55187;BME280;55457;52.002;5.464;2023-07-20T12:10:27;101328.97;;;24.98;42.04
55187;BME280;55457;52.002;5.464;2023-07-20T12:12:54;101326.28;;;25.03;42.10
55187;BME280;55457;52.002;5.464;2023-07-20T12:15:23;101319.25;;;25.07;42.40
55187;BME280;55457;52.002;5.464;2023-07-20T12:17:56;101330.16;;;25.07;41.71
55187;BME280;55457;52.002;5.464;2023-07-20T12:20:35;101316.28;;;25.14;41.88
55187;BME280;55457;52.002;5.464;2023-07-20T12:23:11;101326.38;;;25.13;40.88
55187;BME280;55457;52.002;5.464;2023-07-20T12:25:45;101319.28;;;25.12;41.44
55187;BME280;55457;52.002;5.464;2023-07-20T12:28:13;101317.66;;;25.16;41.85
55187;BME280;55457;52.002;5.464;2023-07-20T12:30:41;101313.31;;;25.20;42.32
55187;BME280;55457;52.002;5.464;2023-07-20T12:33:06;101315.78;;;25.22;40.80
55187;BME280;55457;52.002;5.464;2023-07-20T12:35:32;101311.13;;;25.17;40.67
55187;BME280;55457;52.002;5.464;2023-07-20T12:37:58;101321.47;;;25.20;40.57
55187;BME280;55457;52.002;5.464;2023-07-20T12:40:24;101313.88;;;25.22;41.77
55187;BME280;55457;52.002;5.464;2023-07-20T12:42:49;101318.22;;;25.18;40.82
55187;BME280;55457;52.002;5.464;2023-07-20T12:45:15;101317.38;;;25.13;41.07
55187;BME280;55457;52.002;5.464;2023-07-20T12:47:41;101311.06;;;25.07;41.75
55187;BME280;55457;52.002;5.464;2023-07-20T12:50:12;101316.72;;;25.06;41.83
55187;BME280;55457;52.002;5.464;2023-07-20T12:52:39;101326.00;;;25.05;42.28
55187;BME280;55457;52.002;5.464;2023-07-20T12:55:06;101322.44;;;25.04;42.53
55187;BME280;55457;52.002;5.464;2023-07-20T12:57:33;101320.81;;;25.03;42.58
55187;BME280;55457;52.002;5.464;2023-07-20T13:00:03;101312.09;;;25.01;42.78
55187;BME280;55457;52.002;5.464;2023-07-20T13:02:32;101315.88;;;25.00;42.69
55187;BME280;55457;52.002;5.464;2023-07-20T13:04:58;101315.34;;;24.98;42.67